createdAt,value
2023-04-23T00:01:20.705Z,13.69
2023-04-23T00:03:50.270Z,13.68
2023-04-23T00:06:17.959Z,13.57
2023-04-23T00:08:45.644Z,13.61
2023-04-23T00:11:12.997Z,13.67
2023-04-23T00:13:40.450Z,13.53
2023-04-23T00:16:08.391Z,13.45
2023-04-23T00:18:35.582Z,13.51
2023-04-23T00:21:02.629Z,13.39
2023-04-23T00:23:29.686Z,13.37
2023-04-23T00:25:56.743Z,13.41
2023-04-23T00:28:23.807Z,13.35
2023-04-23T00:30:51.154Z,13.35
2023-04-23T00:33:18.287Z,13.28
2023-04-23T00:35:45.606Z,13.27
2023-04-23T00:38:12.674Z,13.26
2023-04-23T00:40:39.844Z,13.23
2023-04-23T00:43:09.726Z,13.14
2023-04-23T00:45:37.008Z,13.33
2023-04-23T00:48:04.177Z,13.20
2023-04-23T00:50:31.278Z,13.17
2023-04-23T00:52:58.317Z,13.11
2023-04-23T00:55:25.630Z,13.06
2023-04-23T00:57:52.776Z,13.10
2023-04-23T01:00:20.742Z,13.05
2023-04-23T01:02:49.947Z,13.03
2023-04-23T01:05:18.415Z,12.98
2023-04-23T01:07:46.649Z,12.92
2023-04-23T01:10:13.993Z,12.85
2023-04-23T01:12:41.059Z,12.82
2023-04-23T01:15:09.272Z,12.93
2023-04-23T01:17:37.184Z,12.68
2023-04-23T01:20:06.674Z,12.67
2023-04-23T01:22:38.191Z,12.70
2023-04-23T01:25:05.948Z,12.59
2023-04-23T01:27:36.044Z,12.76
2023-04-23T01:30:07.603Z,12.80
2023-04-23T01:32:35.446Z,12.65
2023-04-23T01:35:04.588Z,12.79
2023-04-23T01:37:32.187Z,12.67
2023-04-23T01:39:59.448Z,12.60
2023-04-23T01:42:26.550Z,12.53
2023-04-23T01:44:53.617Z,12.62
2023-04-23T01:47:21.249Z,12.62
2023-04-23T01:49:48.628Z,12.53
2023-04-23T01:52:15.757Z,12.52
2023-04-23T01:54:42.925Z,12.62
2023-04-23T01:57:10.854Z,12.40
2023-04-23T01:59:38.778Z,12.41
2023-04-23T02:02:05.962Z,12.44
2023-04-23T02:04:34.169Z,12.44
2023-04-23T02:07:01.399Z,12.40
2023-04-23T02:09:28.430Z,12.34
2023-04-23T02:11:57.766Z,12.22
2023-04-23T02:14:24.752Z,12.30
2023-04-23T02:16:51.729Z,12.34
2023-04-23T02:19:18.899Z,12.21
2023-04-23T02:21:46.472Z,12.17
2023-04-23T02:24:13.551Z,12.16
2023-04-23T02:26:40.589Z,12.05
2023-04-23T02:29:07.586Z,12.04
2023-04-23T02:31:34.602Z,12.07
2023-04-23T02:34:01.706Z,12.03
2023-04-23T02:36:31.066Z,12.05
2023-04-23T02:38:58.085Z,12.09
2023-04-23T02:41:25.089Z,12.03
2023-04-23T02:43:52.204Z,11.98
2023-04-23T02:46:19.273Z,11.90
2023-04-23T02:48:46.560Z,11.98
2023-04-23T02:51:14.314Z,11.98
2023-04-23T02:53:41.308Z,12.01
2023-04-23T02:56:08.450Z,11.97
2023-04-23T02:58:35.782Z,11.92
2023-04-23T03:01:03.975Z,11.84
2023-04-23T03:03:32.533Z,11.91
2023-04-23T03:06:02.543Z,12.02
2023-04-23T03:08:29.746Z,11.87
2023-04-23T03:10:56.757Z,11.76
2023-04-23T03:13:24.202Z,11.68
2023-04-23T03:15:52.579Z,11.82
2023-04-23T03:18:20.393Z,11.92
2023-04-23T03:20:47.886Z,11.81
2023-04-23T03:23:14.897Z,11.82
2023-04-23T03:25:41.879Z,11.81
2023-04-23T03:28:08.888Z,11.96
2023-04-23T03:30:35.929Z,11.78
2023-04-23T03:33:03.398Z,11.81
2023-04-23T03:35:30.639Z,11.82
2023-04-23T03:37:57.830Z,11.84
2023-04-23T03:40:25.049Z,11.69
2023-04-23T03:42:52.072Z,11.88
2023-04-23T03:45:19.055Z,11.87
2023-04-23T03:47:46.159Z,11.93
2023-04-23T03:50:13.554Z,11.85
2023-04-23T03:52:41.138Z,12.46
2023-04-23T03:55:09.090Z,13.35
2023-04-23T03:57:39.255Z,14.19
2023-04-23T04:00:11.910Z,14.70
2023-04-23T04:02:41.011Z,15.47
2023-04-23T04:05:10.310Z,16.05
2023-04-23T04:07:37.619Z,16.78
2023-04-23T04:10:06.772Z,17.16
2023-04-23T04:12:33.873Z,17.76
2023-04-23T04:15:00.877Z,18.88
2023-04-23T04:17:27.848Z,19.45
2023-04-23T04:19:54.902Z,20.26
2023-04-23T04:22:21.999Z,21.21
2023-04-23T04:24:52.073Z,21.85
2023-04-23T04:27:19.620Z,22.42
2023-04-23T04:29:46.666Z,22.27
2023-04-23T04:32:13.963Z,22.64
2023-04-23T04:34:41.204Z,23.80
2023-04-23T04:37:10.031Z,24.21
2023-04-23T04:39:37.343Z,24.27
2023-04-23T04:42:06.735Z,24.68
2023-04-23T04:44:37.543Z,25.35
2023-04-23T04:47:08.130Z,25.71
2023-04-23T04:49:36.134Z,25.46
2023-04-23T04:52:03.280Z,26.45
2023-04-23T04:54:30.269Z,27.18
2023-04-23T04:56:57.328Z,27.28
2023-04-23T04:59:24.504Z,28.54
2023-04-23T05:01:51.540Z,29.02
2023-04-23T05:04:18.705Z,29.66
2023-04-23T05:06:45.983Z,30.65
2023-04-23T05:09:13.022Z,30.82
2023-04-23T05:11:41.225Z,31.73
2023-04-23T05:14:08.253Z,31.86
2023-04-23T05:16:35.569Z,31.04
2023-04-23T05:19:02.566Z,31.81
2023-04-23T05:21:29.698Z,31.95
2023-04-23T05:23:56.659Z,32.90
2023-04-23T05:26:23.700Z,33.26
2023-04-23T05:28:50.746Z,34.11
2023-04-23T05:31:17.793Z,34.36
2023-04-23T05:33:50.334Z,34.05
2023-04-23T05:36:18.491Z,34.37
2023-04-23T05:38:45.648Z,34.58
2023-04-23T05:41:13.055Z,34.71
2023-04-23T05:43:40.070Z,34.58
2023-04-23T05:46:07.810Z,34.93
2023-04-23T05:48:35.340Z,36.00
2023-04-23T05:51:02.490Z,35.46
2023-04-23T05:53:29.456Z,36.04
2023-04-23T05:55:56.665Z,36.24
2023-04-23T05:58:24.196Z,36.71
2023-04-23T06:00:53.036Z,37.31
2023-04-23T06:03:20.452Z,37.21
2023-04-23T06:05:47.807Z,37.30
2023-04-23T06:08:14.942Z,37.74
2023-04-23T06:10:41.964Z,38.00
2023-04-23T06:13:09.222Z,37.98
2023-04-23T06:15:36.214Z,37.13
2023-04-23T06:18:03.338Z,37.48
2023-04-23T06:20:30.801Z,37.38
2023-04-23T06:22:57.864Z,37.40
2023-04-23T06:25:25.850Z,38.40
2023-04-23T06:27:52.808Z,38.41
2023-04-23T06:30:20.030Z,38.83
2023-04-23T06:32:47.083Z,39.58
2023-04-23T06:35:14.152Z,38.80
2023-04-23T06:37:41.137Z,39.62
2023-04-23T06:40:08.662Z,38.80
2023-04-23T06:42:35.666Z,38.76
2023-04-23T06:45:06.175Z,39.42
2023-04-23T06:47:33.485Z,39.79
2023-04-23T06:50:00.473Z,39.64
2023-04-23T06:52:27.727Z,40.74
2023-04-23T06:54:54.734Z,39.73
2023-04-23T06:57:22.021Z,39.95
2023-04-23T06:59:49.126Z,39.65
2023-04-23T07:02:16.323Z,39.44
2023-04-23T07:04:43.712Z,39.60
2023-04-23T07:07:12.108Z,39.41
2023-04-23T07:09:39.379Z,39.84
2023-04-23T07:12:06.481Z,39.58
2023-04-23T07:14:33.531Z,39.09
2023-04-23T07:17:00.654Z,39.19
2023-04-23T07:19:27.978Z,38.87
2023-04-23T07:21:54.980Z,37.75
2023-04-23T07:24:22.132Z,37.35
2023-04-23T07:26:49.394Z,35.92
2023-04-23T07:29:16.710Z,35.26
2023-04-23T07:31:43.928Z,34.87
2023-04-23T07:34:11.102Z,35.42
2023-04-23T07:36:38.310Z,34.64
2023-04-23T07:39:05.762Z,33.96
2023-04-23T07:41:33.660Z,33.39
2023-04-23T07:44:01.046Z,31.92
2023-04-23T07:46:28.180Z,31.50
2023-04-23T07:48:55.658Z,31.53
2023-04-23T07:51:26.567Z,31.98
2023-04-23T07:53:58.358Z,32.47
2023-04-23T07:56:25.577Z,31.76
2023-04-23T07:58:54.110Z,31.58
2023-04-23T08:01:21.920Z,32.07
2023-04-23T08:03:49.091Z,31.73
2023-04-23T08:06:16.719Z,32.06
2023-04-23T08:08:44.142Z,31.65
2023-04-23T08:11:11.804Z,30.54
2023-04-23T08:13:38.801Z,30.82
2023-04-23T08:16:07.007Z,30.96
2023-04-23T08:18:34.152Z,31.92
2023-04-23T08:21:02.052Z,31.49
2023-04-23T08:23:29.089Z,29.77
2023-04-23T08:25:56.199Z,29.81
2023-04-23T08:28:23.288Z,29.00
2023-04-23T08:30:50.402Z,29.11
2023-04-23T08:33:17.499Z,28.18
2023-04-23T08:35:44.481Z,27.79
2023-04-23T08:38:11.484Z,28.14
2023-04-23T08:40:42.677Z,28.02
2023-04-23T08:43:26.339Z,28.03
2023-04-23T08:45:54.018Z,28.21
2023-04-23T08:48:21.779Z,28.14
2023-04-23T08:50:49.532Z,27.51
2023-04-23T08:53:22.051Z,27.57
2023-04-23T08:55:50.737Z,27.39
2023-04-23T08:58:18.392Z,27.25
2023-04-23T09:00:45.874Z,27.71
2023-04-23T09:03:13.524Z,27.71
2023-04-23T09:05:40.630Z,28.40
2023-04-23T09:08:08.726Z,28.21
2023-04-23T09:10:40.097Z,28.36
2023-04-23T09:13:07.433Z,28.57
2023-04-23T09:15:43.341Z,28.82
2023-04-23T09:18:10.945Z,29.60
2023-04-23T09:20:38.309Z,28.98
2023-04-23T09:23:09.153Z,28.72
2023-04-23T09:25:36.992Z,29.05
2023-04-23T09:28:10.800Z,29.50
2023-04-23T09:30:44.992Z,28.56
2023-04-23T09:33:17.444Z,28.10
2023-04-23T09:35:44.649Z,27.18
2023-04-23T09:38:12.519Z,27.12
2023-04-23T09:40:39.570Z,27.04
2023-04-23T09:43:10.435Z,27.65
2023-04-23T09:45:38.056Z,27.83
2023-04-23T09:48:06.060Z,28.32
2023-04-23T09:50:39.100Z,27.43
2023-04-23T09:53:08.710Z,27.20
2023-04-23T09:55:42.820Z,27.31
2023-04-23T09:58:15.675Z,27.06
2023-04-23T10:00:43.498Z,27.06
2023-04-23T10:03:12.004Z,27.63
2023-04-23T10:08:14.611Z,27.39
2023-04-23T10:13:12.044Z,27.77
2023-04-23T10:15:39.295Z,27.56
2023-04-23T10:18:08.371Z,26.58
2023-04-23T10:20:36.058Z,27.13
2023-04-23T10:23:04.166Z,27.37
2023-04-23T10:25:32.675Z,26.62
2023-04-23T10:28:02.566Z,26.72
2023-04-23T10:30:30.202Z,26.56
2023-04-23T10:33:00.463Z,26.91
2023-04-23T10:35:27.891Z,26.51
2023-04-23T10:37:54.923Z,26.82
2023-04-23T10:40:34.051Z,26.91
2023-04-23T10:43:01.361Z,27.11
2023-04-23T10:45:32.127Z,27.18
2023-04-23T10:47:59.590Z,26.53
2023-04-23T10:50:35.296Z,26.39
2023-04-23T10:53:03.921Z,26.44
2023-04-23T10:55:32.734Z,25.88
2023-04-23T10:58:08.386Z,26.48
2023-04-23T11:00:41.328Z,25.90
2023-04-23T11:03:34.692Z,26.02
2023-04-23T11:06:03.529Z,25.82
2023-04-23T11:08:32.613Z,25.99
2023-04-23T11:11:01.584Z,25.44
2023-04-23T11:13:30.342Z,25.27
2023-04-23T11:16:23.449Z,25.00
2023-04-23T11:19:04.796Z,25.34
2023-04-23T11:22:01.582Z,25.13
2023-04-23T11:24:34.431Z,24.82
2023-04-23T11:27:02.712Z,25.11
2023-04-23T11:29:29.877Z,25.04
2023-04-23T11:32:02.973Z,25.22
2023-04-23T11:34:33.034Z,24.54
2023-04-23T11:37:01.341Z,24.36
2023-04-23T11:39:28.471Z,24.33
2023-04-23T11:41:55.663Z,24.52
2023-04-23T11:44:23.231Z,24.66
2023-04-23T11:46:51.173Z,23.92
2023-04-23T11:49:19.954Z,24.17
2023-04-23T11:51:48.624Z,24.02
2023-04-23T11:54:16.348Z,24.07
2023-04-23T11:56:43.928Z,24.25
2023-04-23T11:59:11.144Z,24.28
2023-04-23T12:01:47.422Z,23.57
2023-04-23T12:04:22.332Z,23.73
2023-04-23T12:06:51.064Z,23.81
2023-04-23T12:09:22.111Z,23.76
2023-04-23T12:11:52.896Z,23.82
2023-04-23T12:14:28.850Z,23.80
2023-04-23T12:16:57.936Z,23.73
2023-04-23T12:19:31.107Z,23.92
2023-04-23T12:22:03.473Z,23.82
2023-04-23T12:24:52.268Z,24.03
2023-04-23T12:27:24.463Z,23.81
2023-04-23T12:30:04.917Z,23.49
2023-04-23T12:32:34.753Z,23.71
2023-04-23T12:35:02.049Z,23.78
2023-04-23T12:37:31.085Z,23.68
2023-04-23T12:39:59.654Z,23.69
2023-04-23T12:42:27.328Z,23.74
2023-04-23T12:44:57.393Z,23.76
2023-04-23T12:47:24.466Z,23.89
2023-04-23T12:49:55.690Z,23.82
2023-04-23T12:52:22.711Z,23.85
2023-04-23T12:54:52.892Z,23.66
2023-04-23T12:57:23.334Z,23.65
2023-04-23T12:59:50.902Z,23.40
2023-04-23T13:02:18.007Z,23.42
2023-04-23T13:04:45.073Z,23.32
2023-04-23T13:07:12.097Z,23.12
2023-04-23T13:09:39.176Z,23.09
2023-04-23T13:12:06.336Z,23.16
2023-04-23T13:14:33.398Z,23.18
2023-04-23T13:17:00.521Z,23.13
2023-04-23T13:19:27.577Z,23.00
2023-04-23T13:21:54.577Z,23.18
2023-04-23T13:24:21.643Z,23.26
2023-04-23T13:26:48.694Z,23.03
2023-04-23T13:29:16.121Z,23.33
2023-04-23T13:31:43.242Z,23.42
2023-04-23T13:34:10.394Z,23.45
2023-04-23T13:36:37.949Z,23.44
2023-04-23T13:39:05.025Z,23.02
2023-04-23T13:41:32.147Z,23.04
2023-04-23T13:43:59.861Z,22.80
2023-04-23T13:46:27.317Z,23.10
2023-04-23T13:48:54.455Z,23.41
2023-04-23T13:51:33.806Z,23.32
2023-04-23T13:54:02.588Z,23.37
2023-04-23T13:56:30.922Z,23.40
2023-04-23T13:59:18.846Z,23.07
2023-04-23T14:01:50.149Z,23.27
2023-04-23T14:04:18.791Z,23.24
2023-04-23T14:06:46.206Z,23.12
2023-04-23T14:09:13.381Z,23.06
2023-04-23T14:11:41.668Z,22.87
2023-04-23T14:14:08.861Z,22.63
2023-04-23T14:16:36.051Z,22.62
2023-04-23T14:19:03.137Z,22.71
2023-04-23T14:21:30.577Z,23.13
2023-04-23T14:24:09.077Z,22.91
2023-04-23T14:29:53.588Z,22.64
2023-04-23T14:32:20.768Z,22.46
2023-04-23T14:34:47.858Z,22.50
2023-04-23T14:37:17.209Z,22.53
2023-04-23T14:39:44.681Z,22.42
2023-04-23T14:42:11.851Z,22.31
2023-04-23T14:44:38.796Z,22.57
2023-04-23T14:47:08.189Z,22.69
2023-04-23T14:49:35.233Z,22.53
2023-04-23T14:52:03.346Z,22.53
2023-04-23T14:54:30.339Z,22.51
2023-04-23T14:56:57.388Z,22.62
2023-04-23T14:59:24.514Z,22.62
2023-04-23T15:01:51.693Z,22.50
2023-04-23T15:04:19.563Z,22.28
2023-04-23T15:06:46.704Z,22.32
2023-04-23T15:09:13.753Z,22.26
2023-04-23T15:11:42.189Z,22.30
2023-04-23T15:14:31.660Z,22.41
2023-04-23T15:16:59.014Z,22.20
2023-04-23T15:19:26.107Z,22.42
2023-04-23T15:21:53.156Z,22.66
2023-04-23T15:24:20.172Z,22.47
2023-04-23T15:26:47.706Z,22.50
2023-04-23T15:29:14.746Z,22.37
2023-04-23T15:31:42.061Z,22.56
2023-04-23T15:34:09.725Z,22.45
2023-04-23T15:36:37.866Z,22.40
2023-04-23T15:39:07.202Z,22.32
2023-04-23T15:41:39.410Z,22.33
2023-04-23T15:44:10.983Z,22.17
2023-04-23T15:46:38.103Z,22.23
2023-04-23T15:49:05.669Z,22.27
2023-04-23T15:51:33.016Z,22.19
2023-04-23T15:54:02.229Z,22.25
2023-04-23T15:56:29.422Z,22.27
2023-04-23T15:58:56.936Z,22.28
2023-04-23T16:01:26.895Z,22.25
2023-04-23T16:04:09.802Z,22.17
2023-04-23T16:06:38.586Z,22.15
2023-04-23T16:09:08.895Z,22.25
2023-04-23T16:11:38.085Z,22.24
2023-04-23T16:14:06.628Z,21.99
2023-04-23T16:16:33.939Z,22.09
2023-04-23T16:19:02.746Z,22.04
2023-04-23T16:21:30.017Z,21.93
2023-04-23T16:23:56.998Z,22.12
2023-04-23T16:26:24.501Z,22.00
2023-04-23T16:29:05.773Z,21.87
2023-04-23T16:31:38.837Z,21.72
2023-04-23T16:34:05.877Z,21.78
2023-04-23T16:36:32.968Z,21.74
2023-04-23T16:39:00.029Z,21.71
2023-04-23T16:41:27.438Z,21.76
2023-04-23T16:43:54.422Z,21.89
2023-04-23T16:46:21.744Z,21.82
2023-04-23T16:48:48.746Z,21.61
2023-04-23T16:51:15.816Z,21.62
2023-04-23T16:53:43.128Z,21.51
2023-04-23T16:56:10.356Z,21.51
2023-04-23T16:58:37.391Z,21.39
2023-04-23T17:01:04.412Z,21.46
2023-04-23T17:03:31.836Z,21.40
2023-04-23T17:06:31.949Z,21.43
2023-04-23T17:09:01.719Z,21.32
2023-04-23T17:11:31.194Z,21.30
2023-04-23T17:13:58.560Z,21.27
2023-04-23T17:16:29.099Z,21.24
2023-04-23T17:18:56.865Z,21.16
2023-04-23T17:21:24.155Z,21.01
2023-04-23T17:23:51.434Z,21.00
2023-04-23T17:26:19.282Z,21.03
2023-04-23T17:28:46.309Z,20.95
2023-04-23T17:31:13.332Z,20.95
2023-04-23T17:33:43.498Z,21.01
2023-04-23T17:36:10.782Z,20.83
2023-04-23T17:38:37.786Z,20.73
2023-04-23T17:41:04.899Z,20.71
2023-04-23T17:43:34.815Z,20.57
2023-04-23T17:46:02.458Z,20.59
2023-04-23T17:48:29.853Z,20.52
2023-04-23T17:50:57.060Z,20.73
2023-04-23T17:53:24.118Z,20.66
2023-04-23T17:55:51.427Z,20.49
2023-04-23T17:58:19.370Z,20.39
2023-04-23T18:00:47.110Z,20.24
2023-04-23T18:03:16.940Z,20.27
2023-04-23T18:05:45.030Z,20.26
2023-04-23T18:08:12.901Z,20.09
2023-04-23T18:10:40.048Z,20.22
2023-04-23T18:13:09.214Z,20.15
2023-04-23T18:15:36.319Z,20.10
2023-04-23T18:18:04.079Z,20.10
2023-04-23T18:20:34.483Z,20.06
2023-04-23T18:23:01.724Z,20.00
2023-04-23T18:25:28.985Z,19.90
2023-04-23T18:27:56.149Z,20.02
2023-04-23T18:30:25.271Z,19.91
2023-04-23T18:33:07.286Z,19.86
2023-04-23T18:35:34.343Z,19.77
2023-04-23T18:38:10.009Z,19.81
2023-04-23T18:40:37.089Z,19.67
2023-04-23T18:43:04.088Z,19.59
2023-04-23T18:45:31.074Z,19.72
2023-04-23T18:48:23.479Z,19.62
2023-04-23T18:50:50.798Z,19.51
2023-04-23T18:53:19.058Z,19.55
2023-04-23T18:55:47.115Z,19.41
2023-04-23T18:58:14.104Z,19.47
2023-04-23T19:00:41.257Z,19.57
2023-04-23T19:03:23.695Z,19.50
2023-04-23T19:05:53.791Z,19.33
2023-04-23T19:08:21.348Z,19.33
2023-04-23T19:10:48.476Z,19.27
2023-04-23T19:13:15.541Z,19.37
2023-04-23T19:15:42.547Z,19.17
2023-04-23T19:18:09.616Z,19.12
2023-04-23T19:20:36.653Z,19.13
2023-04-23T19:23:05.126Z,19.27
2023-04-23T19:25:32.251Z,19.20
2023-04-23T19:27:59.218Z,19.02
2023-04-23T19:30:26.236Z,18.99
2023-04-23T19:32:53.468Z,19.00
2023-04-23T19:35:21.044Z,18.92
2023-04-23T19:37:48.115Z,18.83
2023-04-23T19:40:15.269Z,18.76
2023-04-23T19:42:42.282Z,18.66
2023-04-23T19:45:09.810Z,18.55
2023-04-23T19:47:39.139Z,18.59
2023-04-23T19:50:07.537Z,18.63
2023-04-23T19:52:34.685Z,18.53
2023-04-23T19:55:01.962Z,18.45
2023-04-23T19:57:29.369Z,18.50
2023-04-23T19:59:56.354Z,18.52
2023-04-23T20:02:24.206Z,18.47
2023-04-23T20:04:51.332Z,18.44
2023-04-23T20:07:18.671Z,18.42
2023-04-23T20:09:45.877Z,18.37
2023-04-23T20:12:14.165Z,18.44
2023-04-23T20:14:42.316Z,18.30
2023-04-23T20:17:10.241Z,18.31
2023-04-23T20:19:38.375Z,18.29
2023-04-23T20:22:05.395Z,18.33
2023-04-23T20:24:32.566Z,18.18
2023-04-23T20:26:59.694Z,18.20
2023-04-23T20:29:27.564Z,18.27
2023-04-23T20:31:54.593Z,18.28
2023-04-23T20:34:21.711Z,18.25
2023-04-23T20:36:49.004Z,18.04
2023-04-23T20:39:18.794Z,18.02
2023-04-23T20:41:46.693Z,18.19
2023-04-23T20:44:13.764Z,18.16
2023-04-23T20:46:41.214Z,18.10
2023-04-23T20:49:08.885Z,17.97
2023-04-23T20:51:35.927Z,18.07
2023-04-23T20:54:03.388Z,18.12
2023-04-23T20:56:31.480Z,18.06
2023-04-23T20:58:59.571Z,17.96
2023-04-23T21:01:27.159Z,18.05
2023-04-23T21:03:54.729Z,18.08
2023-04-23T21:06:22.435Z,17.98
2023-04-23T21:08:49.726Z,17.94
2023-04-23T21:11:19.383Z,17.60
2023-04-23T21:13:47.033Z,17.47
2023-04-23T21:16:14.641Z,17.55
2023-04-23T21:18:42.084Z,17.58
2023-04-23T21:21:09.133Z,17.47
2023-04-23T21:23:36.414Z,17.50
2023-04-23T21:26:03.669Z,17.39
2023-04-23T21:28:31.804Z,17.28
2023-04-23T21:31:07.745Z,17.24
2023-04-23T21:33:34.756Z,17.21
2023-04-23T21:36:01.758Z,17.23
2023-04-23T21:38:28.718Z,17.28
2023-04-23T21:40:55.791Z,17.09
2023-04-23T21:43:24.420Z,17.09
2023-04-23T21:45:51.768Z,17.20
2023-04-23T21:48:18.790Z,17.06
2023-04-23T21:50:46.055Z,17.01
2023-04-23T21:53:13.194Z,16.96
2023-04-23T21:55:40.472Z,16.95
2023-04-23T21:58:17.441Z,16.91
2023-04-23T22:00:46.058Z,16.87
2023-04-23T22:03:17.632Z,16.79
2023-04-23T22:05:52.283Z,16.78
2023-04-23T22:08:19.536Z,16.69
2023-04-23T22:10:46.697Z,16.66
2023-04-23T22:13:14.383Z,16.67
2023-04-23T22:15:41.414Z,16.59
2023-04-23T22:18:08.703Z,16.49
2023-04-23T22:20:37.613Z,16.44
2023-04-23T22:23:04.623Z,16.41
2023-04-23T22:25:31.634Z,16.30
2023-04-23T22:27:58.958Z,16.38
2023-04-23T22:30:26.058Z,16.48
2023-04-23T22:32:53.147Z,16.28
2023-04-23T22:35:20.287Z,16.25
2023-04-23T22:37:47.322Z,16.21
2023-04-23T22:40:14.421Z,16.10
2023-04-23T22:42:41.517Z,15.94
2023-04-23T22:45:08.809Z,15.96
2023-04-23T22:47:36.314Z,15.98
2023-04-23T22:50:04.243Z,16.03
2023-04-23T22:52:31.621Z,15.93
2023-04-23T22:54:58.608Z,15.81
2023-04-23T22:57:25.997Z,15.80
2023-04-23T22:59:53.057Z,15.76
2023-04-23T23:02:20.147Z,15.70
2023-04-23T23:04:47.214Z,15.75
2023-04-23T23:07:14.912Z,15.67
2023-04-23T23:09:41.979Z,15.66
2023-04-23T23:12:09.229Z,15.59
2023-04-23T23:14:37.868Z,15.55
2023-04-23T23:17:06.474Z,15.39
2023-04-23T23:19:33.579Z,15.44
2023-04-23T23:22:00.711Z,15.36
2023-04-23T23:24:27.780Z,15.30
2023-04-23T23:26:54.809Z,15.37
2023-04-23T23:29:21.946Z,15.32
2023-04-23T23:31:49.706Z,15.46
2023-04-23T23:34:16.871Z,15.34
2023-04-23T23:36:45.344Z,15.21
2023-04-23T23:39:13.364Z,15.22
2023-04-23T23:41:40.403Z,15.33
2023-04-23T23:44:07.393Z,15.14
2023-04-23T23:46:34.406Z,15.23
2023-04-23T23:49:01.511Z,15.16
2023-04-23T23:51:29.124Z,15.13
2023-04-23T23:53:56.171Z,15.06
2023-04-23T23:56:23.191Z,14.93
2023-04-23T23:58:50.203Z,14.92
